createdAt,value
2022-11-29T00:00:03.021Z,18.10
2022-11-29T00:00:59.201Z,17.50
2022-11-29T00:01:59.702Z,17.40
2022-11-29T00:02:59.908Z,18.00
2022-11-29T00:04:00.119Z,17.70
2022-11-29T00:05:00.460Z,18.10
2022-11-29T00:06:00.771Z,17.90
2022-11-29T00:07:01.092Z,17.60
2022-11-29T00:08:01.419Z,17.60
2022-11-29T00:09:01.710Z,17.80
2022-11-29T00:10:02.075Z,17.20
2022-11-29T00:11:02.322Z,17.50
2022-11-29T00:12:02.821Z,17.30
2022-11-29T00:13:02.898Z,17.30
2022-11-29T00:14:03.279Z,17.40
2022-11-29T00:15:03.441Z,17.40
2022-11-29T00:16:03.834Z,17.80
2022-11-29T00:17:04.203Z,17.80
2022-11-29T00:18:04.391Z,17.60
2022-11-29T00:19:04.713Z,17.60
2022-11-29T00:20:05.028Z,17.90
2022-11-29T00:21:05.234Z,17.70
2022-11-29T00:22:05.580Z,18.20
2022-11-29T00:23:05.902Z,18.40
2022-11-29T00:24:06.192Z,17.50
2022-11-29T00:25:06.509Z,17.90
2022-11-29T00:26:06.782Z,18.40
2022-11-29T00:27:07.110Z,17.50
2022-11-29T00:28:07.385Z,17.50
2022-11-29T00:29:07.733Z,17.50
2022-11-29T00:30:08.051Z,17.50
2022-11-29T00:31:08.326Z,17.40
2022-11-29T00:32:08.622Z,16.90
2022-11-29T00:33:08.928Z,17.00
2022-11-29T00:34:09.279Z,17.10
2022-11-29T00:35:09.948Z,17.10
2022-11-29T00:36:09.783Z,17.00
2022-11-29T00:37:10.142Z,17.10
2022-11-29T00:38:10.333Z,17.30
2022-11-29T00:39:10.651Z,17.40
2022-11-29T00:40:10.990Z,17.50
2022-11-29T00:41:11.299Z,16.90
2022-11-29T00:42:11.654Z,17.20
2022-11-29T00:43:11.911Z,18.00
2022-11-29T00:44:18.372Z,17.80
2022-11-29T00:45:13.599Z,17.90
2022-11-29T00:46:13.005Z,18.10
2022-11-29T00:47:13.249Z,17.60
2022-11-29T00:48:13.555Z,17.30
2022-11-29T00:49:13.895Z,17.60
2022-11-29T00:50:14.205Z,17.40
2022-11-29T00:51:14.520Z,17.50
2022-11-29T00:52:14.884Z,16.80
2022-11-29T00:53:16.039Z,17.30
2022-11-29T00:54:15.365Z,17.60
2022-11-29T00:55:15.708Z,18.10
2022-11-29T00:56:16.069Z,16.80
2022-11-29T00:57:16.449Z,17.80
2022-11-29T00:58:16.662Z,17.30
2022-11-29T00:59:16.913Z,17.60
2022-11-29T01:00:17.288Z,18.30
2022-11-29T01:01:17.896Z,17.20
2022-11-29T01:02:18.000Z,17.60
2022-11-29T01:03:18.211Z,17.50
2022-11-29T01:04:18.558Z,17.70
2022-11-29T01:05:18.754Z,17.10
2022-11-29T01:06:19.086Z,17.10
2022-11-29T01:07:19.458Z,16.80
2022-11-29T01:08:19.690Z,17.00
2022-11-29T01:09:20.022Z,17.30
2022-11-29T01:10:21.223Z,17.00
2022-11-29T01:11:20.696Z,17.30
2022-11-29T01:12:20.896Z,17.00
2022-11-29T01:13:21.199Z,17.30
2022-11-29T01:14:21.533Z,17.00
2022-11-29T01:15:21.828Z,17.10
2022-11-29T01:16:22.260Z,17.30
2022-11-29T01:17:22.464Z,17.00
2022-11-29T01:18:22.777Z,17.20
2022-11-29T01:19:23.115Z,17.30
2022-11-29T01:20:23.525Z,17.80
2022-11-29T01:21:23.728Z,17.00
2022-11-29T01:22:24.058Z,16.90
2022-11-29T01:23:24.347Z,17.20
2022-11-29T01:24:24.731Z,17.80
2022-11-29T01:25:24.953Z,17.60
2022-11-29T01:26:25.254Z,18.00
2022-11-29T01:27:25.610Z,18.40
2022-11-29T01:28:25.903Z,18.00
2022-11-29T01:29:26.090Z,17.70
2022-11-29T01:30:26.522Z,18.50
2022-11-29T01:31:26.736Z,17.90
2022-11-29T01:32:27.075Z,17.50
2022-11-29T01:33:27.363Z,17.10
2022-11-29T01:34:27.764Z,17.00
2022-11-29T01:35:27.934Z,17.70
2022-11-29T01:36:28.275Z,17.60
2022-11-29T01:37:28.606Z,17.50
2022-11-29T01:38:28.938Z,18.40
2022-11-29T01:39:29.236Z,18.20
2022-11-29T01:40:29.561Z,18.60
2022-11-29T01:41:29.798Z,18.30
2022-11-29T01:42:30.132Z,17.90
2022-11-29T01:43:30.419Z,17.80
2022-11-29T01:44:30.771Z,18.10
2022-11-29T01:45:30.922Z,16.90
2022-11-29T01:46:31.339Z,17.00
2022-11-29T01:47:31.578Z,16.90
2022-11-29T01:48:31.898Z,17.50
2022-11-29T01:49:32.199Z,17.10
2022-11-29T01:50:32.533Z,17.60
2022-11-29T01:51:32.836Z,17.40
2022-11-29T01:52:33.254Z,17.60
2022-11-29T01:53:33.469Z,17.60
2022-11-29T01:54:33.820Z,17.70
2022-11-29T01:55:34.273Z,17.90
2022-11-29T01:56:34.448Z,17.80
2022-11-29T01:57:34.660Z,18.10
2022-11-29T01:58:35.184Z,17.80
2022-11-29T01:59:35.254Z,17.80
2022-11-29T02:00:35.551Z,18.50
2022-11-29T02:01:35.769Z,18.30
2022-11-29T02:02:36.123Z,18.80
2022-11-29T02:03:36.357Z,18.30
2022-11-29T02:04:36.718Z,18.60
2022-11-29T02:05:37.034Z,18.40
2022-11-29T02:06:37.360Z,18.30
2022-11-29T02:07:37.643Z,18.10
2022-11-29T02:08:38.039Z,18.40
2022-11-29T02:09:38.292Z,18.40
2022-11-29T02:10:38.631Z,18.40
2022-11-29T02:11:38.856Z,18.30
2022-11-29T02:12:39.093Z,18.10
2022-11-29T02:13:40.296Z,18.90
2022-11-29T02:14:39.667Z,18.80
2022-11-29T02:15:39.973Z,19.20
2022-11-29T02:16:40.254Z,19.20
2022-11-29T02:17:40.563Z,18.30
2022-11-29T02:18:40.890Z,18.90
2022-11-29T02:19:41.204Z,18.00
2022-11-29T02:20:41.518Z,19.00
2022-11-29T02:21:41.809Z,18.80
2022-11-29T02:22:42.133Z,18.90
2022-11-29T02:23:42.477Z,18.50
2022-11-29T02:24:43.069Z,18.90
2022-11-29T02:25:43.021Z,19.00
2022-11-29T02:26:43.341Z,19.30
2022-11-29T02:27:43.651Z,19.80
2022-11-29T02:28:43.985Z,19.10
2022-11-29T02:29:44.401Z,19.00
2022-11-29T02:30:44.631Z,19.60
2022-11-29T02:31:44.821Z,19.40
2022-11-29T02:32:45.192Z,19.20
2022-11-29T02:33:45.387Z,19.40
2022-11-29T02:34:46.049Z,18.70
2022-11-29T02:35:45.984Z,19.60
2022-11-29T02:36:46.312Z,19.30
2022-11-29T02:37:46.611Z,19.90
2022-11-29T02:38:47.005Z,19.90
2022-11-29T02:39:47.241Z,19.70
2022-11-29T02:40:47.557Z,20.00
2022-11-29T02:41:47.856Z,20.20
2022-11-29T02:42:52.571Z,19.90
2022-11-29T02:43:49.486Z,20.40
2022-11-29T02:44:48.815Z,20.20
2022-11-29T02:45:49.132Z,20.40
2022-11-29T02:46:49.428Z,21.10
2022-11-29T02:47:49.683Z,21.20
2022-11-29T02:48:49.867Z,20.70
2022-11-29T02:49:50.172Z,21.20
2022-11-29T02:50:50.551Z,21.40
2022-11-29T02:51:50.802Z,20.80
2022-11-29T02:52:50.989Z,20.40
2022-11-29T02:53:51.329Z,20.20
2022-11-29T02:54:51.643Z,20.50
2022-11-29T02:55:51.937Z,19.20
2022-11-29T02:56:52.285Z,19.90
2022-11-29T02:57:52.505Z,19.40
2022-11-29T02:58:52.830Z,19.40
2022-11-29T02:59:53.106Z,19.80
2022-11-29T03:00:53.478Z,19.80
2022-11-29T03:01:53.840Z,19.80
2022-11-29T03:02:54.216Z,20.20
2022-11-29T03:03:54.405Z,20.20
2022-11-29T03:04:54.721Z,20.20
2022-11-29T03:05:55.056Z,20.10
2022-11-29T03:06:55.415Z,20.20
2022-11-29T03:07:55.847Z,20.40
2022-11-29T03:08:56.095Z,21.20
2022-11-29T03:09:56.421Z,21.20
2022-11-29T03:10:56.737Z,21.10
2022-11-29T03:11:57.056Z,21.50
2022-11-29T03:12:57.385Z,21.80
2022-11-29T03:13:57.684Z,21.50
2022-11-29T03:14:58.032Z,20.80
2022-11-29T03:15:58.348Z,20.80
2022-11-29T03:16:58.693Z,21.20
2022-11-29T03:17:59.009Z,21.40
2022-11-29T03:18:59.316Z,21.50
2022-11-29T03:19:59.652Z,21.90
2022-11-29T03:20:59.981Z,21.90
2022-11-29T03:22:00.317Z,22.70
2022-11-29T03:23:00.616Z,22.60
2022-11-29T03:24:00.949Z,22.30
2022-11-29T03:25:01.260Z,22.50
2022-11-29T03:26:01.653Z,23.20
2022-11-29T03:27:01.833Z,22.50
2022-11-29T03:28:02.038Z,22.50
2022-11-29T03:29:02.325Z,22.60
2022-11-29T03:30:02.522Z,22.70
2022-11-29T03:31:02.874Z,23.00
2022-11-29T03:32:03.166Z,23.20
2022-11-29T03:33:03.502Z,22.20
2022-11-29T03:34:03.800Z,23.00
2022-11-29T03:35:04.156Z,23.60
2022-11-29T03:36:04.463Z,23.70
2022-11-29T03:37:04.785Z,24.70
2022-11-29T03:38:05.162Z,24.90
2022-11-29T03:39:05.378Z,26.20
2022-11-29T03:40:05.695Z,26.80
2022-11-29T03:41:05.882Z,26.60
2022-11-29T03:42:06.224Z,27.30
2022-11-29T03:43:06.547Z,27.20
2022-11-29T03:44:06.852Z,27.90
2022-11-29T03:45:07.225Z,27.00
2022-11-29T03:46:07.472Z,27.80
2022-11-29T03:47:07.787Z,25.90
2022-11-29T03:48:08.083Z,26.70
2022-11-29T03:49:08.463Z,26.60
2022-11-29T03:50:08.747Z,25.70
2022-11-29T03:51:09.103Z,26.00
2022-11-29T03:52:09.433Z,26.40
2022-11-29T03:53:09.726Z,27.00
2022-11-29T03:54:09.899Z,26.90
2022-11-29T03:55:10.258Z,26.70
2022-11-29T03:56:10.651Z,27.00
2022-11-29T03:57:10.845Z,26.70
2022-11-29T03:58:11.129Z,26.60
2022-11-29T03:59:11.490Z,26.20
2022-11-29T04:00:11.763Z,25.80
2022-11-29T04:01:12.148Z,25.40
2022-11-29T04:02:12.342Z,24.90
2022-11-29T04:03:12.651Z,24.60
2022-11-29T04:04:12.978Z,24.60
2022-11-29T04:05:13.280Z,24.60
2022-11-29T04:06:13.633Z,25.00
2022-11-29T04:07:14.009Z,24.60
2022-11-29T04:08:14.194Z,26.00
2022-11-29T04:09:14.536Z,26.00
2022-11-29T04:10:14.829Z,24.40
2022-11-29T04:11:15.214Z,24.90
2022-11-29T04:12:15.411Z,25.10
2022-11-29T04:13:15.734Z,25.00
2022-11-29T04:14:15.966Z,24.90
2022-11-29T04:15:16.293Z,25.10
2022-11-29T04:16:16.491Z,24.10
2022-11-29T04:17:16.843Z,24.90
2022-11-29T04:18:17.038Z,24.80
2022-11-29T04:19:17.344Z,24.60
2022-11-29T04:20:17.645Z,24.40
2022-11-29T04:21:18.017Z,25.60
2022-11-29T04:22:18.208Z,25.10
2022-11-29T04:23:18.543Z,24.20
2022-11-29T04:24:18.891Z,24.60
2022-11-29T04:25:19.091Z,25.90
2022-11-29T04:26:19.388Z,25.60
2022-11-29T04:27:21.229Z,26.10
2022-11-29T04:28:20.030Z,25.80
2022-11-29T04:29:20.330Z,25.60
2022-11-29T04:30:22.499Z,25.60
2022-11-29T04:31:20.930Z,25.50
2022-11-29T04:32:21.273Z,25.70
2022-11-29T04:33:21.534Z,25.90
2022-11-29T04:34:21.863Z,26.30
2022-11-29T04:35:23.046Z,26.50
2022-11-29T04:36:22.376Z,26.70
2022-11-29T04:37:22.730Z,27.40
2022-11-29T04:38:23.008Z,27.30
2022-11-29T04:39:23.416Z,29.00
2022-11-29T04:40:23.726Z,28.80
2022-11-29T04:41:23.978Z,29.40
2022-11-29T04:42:24.220Z,28.30
2022-11-29T04:43:24.589Z,28.10
2022-11-29T04:44:24.856Z,29.30
2022-11-29T04:45:25.984Z,28.30
2022-11-29T04:46:25.429Z,28.20
2022-11-29T04:47:25.675Z,29.00
2022-11-29T04:48:26.027Z,29.00
2022-11-29T04:49:26.318Z,28.00
2022-11-29T04:50:26.613Z,28.00
2022-11-29T04:51:26.931Z,28.60
2022-11-29T04:52:27.231Z,28.30
2022-11-29T04:53:27.554Z,27.40
2022-11-29T04:54:27.833Z,27.40
2022-11-29T04:55:31.046Z,27.30
2022-11-29T04:56:28.421Z,27.50
2022-11-29T04:57:28.755Z,27.10
2022-11-29T04:58:29.100Z,27.10
2022-11-29T04:59:29.436Z,27.40
2022-11-29T05:00:29.734Z,26.50
2022-11-29T05:01:30.041Z,27.10
2022-11-29T05:02:30.312Z,26.70
2022-11-29T05:03:30.606Z,26.50
2022-11-29T05:04:30.954Z,26.50
2022-11-29T05:05:31.326Z,26.30
2022-11-29T05:06:31.610Z,27.10
2022-11-29T05:07:31.968Z,26.20
2022-11-29T05:08:33.037Z,26.40
2022-11-29T05:09:32.474Z,26.00
2022-11-29T05:10:32.809Z,25.80
2022-11-29T05:11:33.181Z,26.30
2022-11-29T05:12:34.283Z,26.30
2022-11-29T05:13:33.658Z,26.20
2022-11-29T05:14:34.826Z,26.00
2022-11-29T05:15:34.260Z,25.80
2022-11-29T05:16:34.392Z,25.60
2022-11-29T05:17:35.573Z,25.10
2022-11-29T05:18:35.947Z,25.50
2022-11-29T05:19:36.437Z,23.80
2022-11-29T05:20:35.662Z,24.60
2022-11-29T05:21:35.989Z,24.90
2022-11-29T05:22:36.179Z,25.00
2022-11-29T05:23:37.342Z,24.90
2022-11-29T05:24:38.108Z,25.60
2022-11-29T05:25:37.060Z,25.30
2022-11-29T05:26:38.227Z,25.70
2022-11-29T05:27:38.119Z,26.00
2022-11-29T05:28:37.912Z,25.20
2022-11-29T05:29:38.262Z,25.70
2022-11-29T05:30:39.546Z,24.90
2022-11-29T05:31:38.957Z,25.60
2022-11-29T05:32:40.009Z,25.50
2022-11-29T05:33:39.495Z,24.30
2022-11-29T05:34:39.805Z,24.90
2022-11-29T05:35:40.964Z,24.60
2022-11-29T05:36:40.665Z,24.80
2022-11-29T05:37:40.698Z,23.90
2022-11-29T05:38:42.385Z,23.40
2022-11-29T05:39:42.142Z,23.10
2022-11-29T05:40:42.443Z,22.10
2022-11-29T05:41:42.792Z,21.60
2022-11-29T05:42:44.120Z,21.50
2022-11-29T05:43:42.543Z,21.20
2022-11-29T05:44:43.334Z,21.10
2022-11-29T05:45:44.029Z,21.10
2022-11-29T05:46:43.424Z,19.40
2022-11-29T05:47:47.878Z,18.90
2022-11-29T05:48:45.318Z,18.70
2022-11-29T05:49:44.368Z,17.80
2022-11-29T05:50:44.463Z,17.30
2022-11-29T05:51:44.783Z,17.70
2022-11-29T05:52:44.967Z,17.30
2022-11-29T05:53:46.392Z,17.20
2022-11-29T05:54:48.091Z,17.50
2022-11-29T05:55:47.727Z,17.40
2022-11-29T05:56:49.533Z,17.70
2022-11-29T05:57:46.390Z,17.00
2022-11-29T05:58:47.585Z,18.20
2022-11-29T05:59:48.482Z,17.30
2022-11-29T06:00:49.536Z,17.40
2022-11-29T06:01:49.576Z,17.00
2022-11-29T06:02:49.651Z,17.10
2022-11-29T06:03:50.767Z,18.90
2022-11-29T06:04:48.563Z,19.00
2022-11-29T06:05:50.708Z,18.30
2022-11-29T06:06:51.974Z,17.40
2022-11-29T06:07:51.557Z,17.90
2022-11-29T06:08:52.290Z,17.00
2022-11-29T06:10:01.513Z,16.60
2022-11-29T06:10:54.415Z,16.80
2022-11-29T06:12:04.465Z,17.60
2022-11-29T06:13:04.488Z,17.00
2022-11-29T06:13:54.758Z,17.50
2022-11-29T06:15:19.108Z,16.80
2022-11-29T06:15:57.363Z,17.30
2022-11-29T07:38:53.307Z,21.80
2022-11-29T07:39:59.508Z,21.90
2022-11-29T07:40:51.860Z,20.60
2022-11-29T07:41:51.281Z,20.30
2022-11-29T07:42:53.429Z,20.10
2022-11-29T07:43:52.061Z,19.90
2022-11-29T07:44:52.158Z,20.60
2022-11-29T07:45:52.484Z,20.50
2022-11-29T07:46:52.961Z,21.60
2022-11-29T07:47:54.106Z,19.10
2022-11-29T07:48:54.245Z,19.70
2022-11-29T07:49:53.585Z,19.40
2022-11-29T07:50:53.899Z,20.20
2022-11-29T07:51:55.104Z,17.70
2022-11-29T07:52:55.301Z,15.60
2022-11-29T07:53:56.730Z,15.60
2022-11-29T07:54:55.852Z,15.20
2022-11-29T07:55:56.157Z,15.40
2022-11-29T07:56:56.508Z,16.80
2022-11-29T07:57:56.677Z,17.80
2022-11-29T07:58:56.167Z,16.80
2022-11-29T07:59:57.289Z,16.10
2022-11-29T08:00:57.698Z,15.90
2022-11-29T08:01:57.054Z,16.00
2022-11-29T08:02:58.180Z,15.10
2022-11-29T08:03:57.837Z,16.10
2022-11-29T08:04:58.924Z,15.50
2022-11-29T08:06:00.496Z,15.80
2022-11-29T08:06:59.828Z,16.40
2022-11-29T08:07:58.821Z,16.30
2022-11-29T08:08:59.178Z,17.30
2022-11-29T08:10:05.912Z,16.00
2022-11-29T08:11:02.980Z,16.20
2022-11-29T08:11:59.975Z,16.00
2022-11-29T08:13:01.126Z,16.50
2022-11-29T08:14:02.355Z,16.70
2022-11-29T08:15:03.065Z,16.30
2022-11-29T08:16:01.924Z,16.90
2022-11-29T08:17:02.697Z,17.00
2022-11-29T08:18:03.963Z,17.10
2022-11-29T08:19:03.477Z,17.20
2022-11-29T08:20:04.281Z,16.40
2022-11-29T08:21:02.574Z,16.30
2022-11-29T08:22:06.628Z,15.70
2022-11-29T08:23:04.941Z,15.80
2022-11-29T08:24:04.121Z,16.60
2022-11-29T08:25:07.463Z,16.40
2022-11-29T08:26:04.709Z,16.00
2022-11-29T08:27:04.123Z,15.90
2022-11-29T08:28:05.350Z,16.50
2022-11-29T08:29:06.525Z,16.00
2022-11-29T08:30:07.669Z,15.80
2022-11-29T08:31:05.222Z,16.00
2022-11-29T08:32:08.940Z,16.60
2022-11-29T08:33:06.586Z,17.00
2022-11-29T08:34:08.240Z,16.60
2022-11-29T08:35:08.395Z,15.20
2022-11-29T08:36:07.455Z,15.40
2022-11-29T08:37:08.754Z,16.80
2022-11-29T08:38:07.280Z,14.00
2022-11-29T08:39:09.577Z,16.90
2022-11-29T08:40:07.646Z,14.90
2022-11-29T08:41:07.979Z,14.30
2022-11-29T08:42:11.964Z,14.30
2022-11-29T08:43:09.407Z,15.10
2022-11-29T08:44:09.679Z,15.20
2022-11-29T08:45:09.138Z,15.10
2022-11-29T08:46:12.482Z,13.90
2022-11-29T08:47:10.650Z,14.00
2022-11-29T08:48:11.759Z,14.00
2022-11-29T08:49:13.102Z,14.20
2022-11-29T08:50:12.452Z,14.30
2022-11-29T08:51:12.098Z,15.10
2022-11-29T08:52:11.498Z,14.70
2022-11-29T08:53:12.342Z,15.00
2022-11-29T08:54:13.475Z,14.60
2022-11-29T08:55:13.791Z,15.90
2022-11-29T08:56:59.625Z,15.20
2022-11-29T08:57:39.395Z,14.70
2022-11-29T08:58:14.866Z,14.50
2022-11-29T08:59:14.991Z,14.30
2022-11-29T09:00:15.185Z,14.20
2022-11-29T09:01:15.817Z,14.40
2022-11-29T09:02:14.741Z,15.00
2022-11-29T09:03:15.266Z,14.80
2022-11-29T09:04:15.503Z,15.00
2022-11-29T09:05:14.808Z,15.40
2022-11-29T09:06:15.065Z,15.40
2022-11-29T09:07:15.470Z,15.10
2022-11-29T09:08:16.602Z,15.50
2022-11-29T09:09:15.975Z,14.60
2022-11-29T09:10:19.547Z,15.30
2022-11-29T09:11:18.397Z,15.20
2022-11-29T09:12:18.591Z,15.70
2022-11-29T09:13:18.080Z,15.40
2022-11-29T09:14:18.432Z,15.30
2022-11-29T09:15:18.583Z,15.00
2022-11-29T09:16:24.742Z,15.20
2022-11-29T09:17:20.572Z,15.60
2022-11-29T09:18:18.417Z,15.50
2022-11-29T09:19:19.555Z,15.10
2022-11-29T09:20:20.983Z,15.30
2022-11-29T09:21:21.840Z,15.10
2022-11-29T09:22:21.818Z,15.30
2022-11-29T09:23:20.771Z,14.70
2022-11-29T09:24:20.549Z,15.70
2022-11-29T09:25:22.548Z,15.80
2022-11-29T09:26:21.563Z,15.80
2022-11-29T09:27:21.704Z,15.40
2022-11-29T09:28:21.975Z,14.90
2022-11-29T09:29:23.263Z,15.30
2022-11-29T09:30:23.957Z,15.80
2022-11-29T09:31:22.849Z,15.60
2022-11-29T09:32:22.349Z,15.20
2022-11-29T09:33:23.365Z,16.00
2022-11-29T09:34:24.682Z,17.20
2022-11-29T09:35:24.914Z,17.80
2022-11-29T09:36:28.910Z,18.40
2022-11-29T09:37:25.039Z,18.30
2022-11-29T09:38:24.868Z,20.90
2022-11-29T09:39:24.277Z,18.10
2022-11-29T09:40:28.977Z,17.10
2022-11-29T09:41:25.292Z,18.50
2022-11-29T09:42:25.025Z,16.40
2022-11-29T09:43:26.246Z,16.50
2022-11-29T09:44:25.532Z,16.20
2022-11-29T09:45:25.883Z,17.40
2022-11-29T09:46:27.121Z,16.80
2022-11-29T09:47:27.671Z,16.00
2022-11-29T09:48:28.581Z,15.20
2022-11-29T09:49:27.920Z,16.50
2022-11-29T09:50:29.972Z,17.20
2022-11-29T09:51:27.475Z,17.30
2022-11-29T09:52:28.576Z,17.70
2022-11-29T09:53:28.870Z,19.80
2022-11-29T09:54:29.155Z,21.00
2022-11-29T09:55:29.405Z,21.30
2022-11-29T09:56:30.139Z,20.80
2022-11-29T09:57:30.961Z,22.40
2022-11-29T09:58:30.199Z,19.70
2022-11-29T09:59:31.106Z,18.40
2022-11-29T10:00:30.841Z,17.30
2022-11-29T10:01:30.255Z,18.10
2022-11-29T10:02:30.551Z,18.00
2022-11-29T10:03:32.669Z,19.10
2022-11-29T10:04:31.128Z,19.50
2022-11-29T10:05:34.183Z,20.10
2022-11-29T10:06:32.568Z,20.60
2022-11-29T10:07:33.549Z,20.00
2022-11-29T10:08:34.222Z,20.00
2022-11-29T10:09:34.100Z,19.70
2022-11-29T10:10:32.850Z,19.60
2022-11-29T10:11:34.081Z,20.30
2022-11-29T10:12:34.340Z,20.30
2022-11-29T10:13:33.644Z,21.30
2022-11-29T10:14:33.951Z,21.10
2022-11-29T10:18:49.585Z,24.50
2022-11-29T10:19:05.187Z,24.70
2022-11-29T10:20:05.478Z,23.10
2022-11-29T10:21:05.697Z,22.30
2022-11-29T10:22:05.963Z,22.70
2022-11-29T10:23:06.293Z,22.70
2022-11-29T10:24:06.516Z,22.00
2022-11-29T10:25:06.823Z,21.60
2022-11-29T10:26:07.074Z,22.20
2022-11-29T10:27:07.377Z,22.20
2022-11-29T10:28:07.663Z,22.50
2022-11-29T10:29:08.927Z,23.70
2022-11-29T10:30:08.135Z,22.10
2022-11-29T10:31:08.564Z,24.60
2022-11-29T10:32:10.457Z,23.70
2022-11-29T10:33:09.073Z,23.60
2022-11-29T10:34:09.268Z,22.60
2022-11-29T10:35:09.562Z,21.60
2022-11-29T10:36:09.798Z,21.80
2022-11-29T10:37:10.051Z,22.90
2022-11-29T10:39:14.567Z,22.10
2022-11-29T10:40:10.910Z,23.00
2022-11-29T10:41:11.230Z,23.10
2022-11-29T10:42:11.459Z,23.10
2022-11-29T10:43:11.798Z,22.60
2022-11-29T10:44:12.053Z,23.20
2022-11-29T10:45:12.392Z,24.10
2022-11-29T10:46:12.847Z,23.90
2022-11-29T10:47:12.918Z,23.10
2022-11-29T10:48:13.206Z,23.40
2022-11-29T10:49:13.567Z,23.70
2022-11-29T10:50:13.792Z,23.70
2022-11-29T10:51:14.093Z,23.60
2022-11-29T10:52:14.407Z,23.20
2022-11-29T10:53:15.598Z,22.90
2022-11-29T10:54:15.350Z,24.00
2022-11-29T10:55:15.463Z,23.70
2022-11-29T10:56:15.570Z,24.60
2022-11-29T10:57:15.883Z,24.50
2022-11-29T10:58:16.117Z,25.00
2022-11-29T10:59:16.469Z,24.90
2022-11-29T11:00:16.712Z,24.80
2022-11-29T11:01:17.370Z,24.80
2022-11-29T11:02:17.236Z,25.10
2022-11-29T11:03:17.556Z,24.60
2022-11-29T11:04:17.880Z,25.10
2022-11-29T11:05:18.151Z,25.60
2022-11-29T11:06:18.427Z,26.20
2022-11-29T11:07:18.781Z,27.30
2022-11-29T11:08:18.899Z,29.40
2022-11-29T11:09:19.265Z,25.20
2022-11-29T11:10:19.495Z,25.70
2022-11-29T11:11:19.826Z,24.00
2022-11-29T11:12:20.158Z,23.60
2022-11-29T11:13:20.425Z,24.70
2022-11-29T11:14:20.750Z,24.60
2022-11-29T11:15:21.092Z,24.80
2022-11-29T11:16:21.506Z,24.30
2022-11-29T11:17:21.742Z,25.60
2022-11-29T11:18:21.932Z,27.00
2022-11-29T11:19:23.276Z,27.50
2022-11-29T11:20:22.630Z,26.00
2022-11-29T11:21:22.992Z,22.90
2022-11-29T11:22:23.301Z,23.20
2022-11-29T11:23:23.494Z,22.40
2022-11-29T11:24:23.617Z,22.20
2022-11-29T11:25:24.025Z,21.80
2022-11-29T11:26:24.249Z,21.00
2022-11-29T11:27:24.447Z,20.60
2022-11-29T11:28:24.774Z,19.50
2022-11-29T11:29:25.055Z,20.10
2022-11-29T11:30:25.625Z,20.70
2022-11-29T11:31:25.744Z,20.30
2022-11-29T11:32:25.918Z,20.40
2022-11-29T11:33:26.357Z,21.60
2022-11-29T11:34:26.438Z,20.70
2022-11-29T11:35:26.679Z,19.90
2022-11-29T11:36:26.967Z,19.30
2022-11-29T11:37:27.262Z,19.20
2022-11-29T11:38:27.578Z,19.40
2022-11-29T11:39:27.854Z,20.70
2022-11-29T11:40:28.481Z,20.90
2022-11-29T11:41:28.363Z,21.50
2022-11-29T11:42:28.666Z,20.20
2022-11-29T11:43:29.124Z,19.90
2022-11-29T11:45:30.752Z,21.60
2022-11-29T11:46:30.005Z,20.80
2022-11-29T11:47:30.257Z,20.70
2022-11-29T11:48:30.516Z,20.70
2022-11-29T11:49:30.651Z,20.40
2022-11-29T11:50:31.034Z,20.80
2022-11-29T11:51:31.213Z,20.70
2022-11-29T11:52:34.742Z,21.50
2022-11-29T11:53:32.839Z,22.80
2022-11-29T11:54:32.081Z,21.40
2022-11-29T11:55:32.476Z,22.40
2022-11-29T11:56:32.527Z,20.50
2022-11-29T11:57:32.926Z,20.60
2022-11-29T11:58:33.121Z,21.60
2022-11-29T11:59:33.391Z,21.70
2022-11-29T12:01:01.875Z,21.40
2022-11-29T12:01:34.931Z,22.30
2022-11-29T12:02:34.447Z,22.70
2022-11-29T12:03:34.589Z,21.70
2022-11-29T12:04:34.881Z,21.70
2022-11-29T12:05:35.275Z,21.50
2022-11-29T12:06:35.542Z,21.90
2022-11-29T12:08:06.284Z,21.40
2022-11-29T12:08:36.992Z,24.90
2022-11-29T12:09:36.358Z,23.50
2022-11-29T12:10:36.523Z,21.10
2022-11-29T12:11:36.775Z,22.20
2022-11-29T12:12:37.088Z,20.90
2022-11-29T12:13:37.367Z,20.80
2022-11-29T12:14:38.093Z,21.20
2022-11-29T12:15:38.088Z,20.90
2022-11-29T12:16:38.213Z,21.30
2022-11-29T12:17:38.567Z,22.00
2022-11-29T12:18:38.759Z,22.40
2022-11-29T12:19:39.069Z,21.00
2022-11-29T12:20:39.334Z,21.90
2022-11-29T12:21:39.595Z,23.20
2022-11-29T12:22:42.656Z,23.40
2022-11-29T12:23:41.180Z,22.90
2022-11-29T12:24:40.460Z,22.90
2022-11-29T12:25:40.828Z,23.00
2022-11-29T12:26:58.252Z,23.40
2022-11-29T12:27:42.239Z,22.00
2022-11-29T12:28:41.512Z,24.30
2022-11-29T12:29:41.793Z,22.40
2022-11-29T12:30:42.123Z,21.90
2022-11-29T12:31:42.408Z,23.40
2022-11-29T12:32:42.668Z,23.00
2022-11-29T12:33:43.134Z,22.30
2022-11-29T12:34:43.606Z,22.60
2022-11-29T12:35:43.528Z,22.60
2022-11-29T12:36:43.793Z,21.90
2022-11-29T12:37:44.563Z,22.20
2022-11-29T12:38:44.427Z,22.00
2022-11-29T12:39:44.749Z,20.20
2022-11-29T12:40:45.019Z,20.20
2022-11-29T12:41:49.518Z,20.30
2022-11-29T12:42:46.585Z,20.80
2022-11-29T12:43:45.733Z,21.30
2022-11-29T12:44:46.459Z,21.50
2022-11-29T12:45:46.259Z,21.20
2022-11-29T12:46:46.627Z,22.10
2022-11-29T12:47:51.728Z,22.10
2022-11-29T12:48:48.082Z,22.50
2022-11-29T12:49:47.458Z,21.40
2022-11-29T12:50:47.696Z,21.40
2022-11-29T12:51:48.036Z,22.70
2022-11-29T12:52:48.238Z,22.80
2022-11-29T12:53:48.609Z,22.30
2022-11-29T12:54:48.870Z,22.00
2022-11-29T12:55:49.195Z,23.40
2022-11-29T12:56:49.522Z,22.80
2022-11-29T12:57:49.765Z,23.10
2022-11-29T12:58:50.206Z,23.00
2022-11-29T12:59:50.346Z,23.70
2022-11-29T13:00:50.638Z,23.00
2022-11-29T13:01:50.929Z,23.00
2022-11-29T13:02:51.266Z,23.80
2022-11-29T13:03:51.538Z,24.20
2022-11-29T13:04:56.507Z,23.60
2022-11-29T13:05:53.072Z,24.50
2022-11-29T13:06:52.387Z,27.60
2022-11-29T13:07:52.674Z,24.90
2022-11-29T13:08:52.986Z,24.20
2022-11-29T13:09:53.265Z,23.90
2022-11-29T13:10:53.636Z,23.90
2022-11-29T13:11:53.804Z,23.50
2022-11-29T13:12:54.072Z,23.10
2022-11-29T13:14:03.813Z,24.80
2022-11-29T13:14:55.769Z,26.20
2022-11-29T13:15:55.000Z,25.60
2022-11-29T13:16:55.748Z,25.50
2022-11-29T13:17:55.569Z,25.20
2022-11-29T13:18:55.732Z,24.70
2022-11-29T13:19:56.005Z,24.50
2022-11-29T13:20:56.294Z,23.80
2022-11-29T13:21:56.621Z,23.90
2022-11-29T13:22:56.904Z,25.30
2022-11-29T13:24:12.429Z,25.60
2022-11-29T13:24:58.447Z,25.40
2022-11-29T13:25:57.709Z,25.20
2022-11-29T13:26:58.163Z,25.10
2022-11-29T13:27:58.533Z,24.80
2022-11-29T13:28:58.613Z,23.80
2022-11-29T13:29:58.909Z,23.70
2022-11-29T13:30:59.472Z,22.90
2022-11-29T13:31:59.393Z,22.30
2022-11-29T13:32:59.643Z,22.00
2022-11-29T13:33:59.985Z,22.70
2022-11-29T13:35:00.284Z,23.00
2022-11-29T13:36:00.618Z,22.90
2022-11-29T13:37:00.811Z,22.90
2022-11-29T13:38:01.083Z,21.90
2022-11-29T13:39:02.295Z,22.10
2022-11-29T13:40:01.740Z,22.30
2022-11-29T13:41:01.962Z,21.70
2022-11-29T13:42:02.348Z,23.00
2022-11-29T13:43:02.485Z,25.30
2022-11-29T13:44:02.795Z,24.60
2022-11-29T13:45:03.101Z,22.60
2022-11-29T13:46:03.428Z,23.50
2022-11-29T13:47:03.660Z,22.50
2022-11-29T13:48:03.966Z,22.00
2022-11-29T13:49:04.260Z,27.00
2022-11-29T13:50:04.550Z,23.70
2022-11-29T13:51:04.885Z,22.80
2022-11-29T13:52:05.090Z,23.10
2022-11-29T13:53:05.332Z,23.00
2022-11-29T13:54:05.573Z,23.00
2022-11-29T13:55:05.864Z,23.20
2022-11-29T13:56:06.104Z,25.10
2022-11-29T13:57:06.803Z,24.30
2022-11-29T13:58:21.969Z,25.40
2022-11-29T13:59:07.961Z,24.10
2022-11-29T14:00:07.234Z,23.90
2022-11-29T14:01:07.499Z,26.30
2022-11-29T14:02:07.919Z,25.10
2022-11-29T14:03:08.129Z,24.60
2022-11-29T14:04:08.476Z,27.10
2022-11-29T14:05:08.609Z,24.90
2022-11-29T14:06:09.024Z,24.60
2022-11-29T14:07:09.107Z,24.20
2022-11-29T14:08:12.771Z,24.30
2022-11-29T14:09:19.012Z,24.80
2022-11-29T14:10:11.062Z,24.50
2022-11-29T14:11:10.343Z,23.70
2022-11-29T14:12:10.725Z,23.70
2022-11-29T14:13:11.001Z,23.30
2022-11-29T14:14:11.311Z,23.90
2022-11-29T14:15:11.571Z,23.90
2022-11-29T14:16:12.085Z,24.10
2022-11-29T14:17:12.183Z,24.60
2022-11-29T14:18:12.438Z,24.50
2022-11-29T14:19:12.697Z,24.70
2022-11-29T14:20:13.054Z,23.90
2022-11-29T14:21:13.299Z,23.90
2022-11-29T14:22:13.539Z,24.10